sensor_id;sensor_type;location;lat;lon;timestamp;temperature;humidity
5218;DHT22;26539;51.064;6.346;2024-02-15T00:02:14;13.00;38.00
5218;DHT22;26539;51.064;6.346;2024-02-15T00:04:40;13.00;36.60
5218;DHT22;26539;51.064;6.346;2024-02-15T00:07:06;13.00;35.80
5218;DHT22;26539;51.064;6.346;2024-02-15T00:09:32;13.00;32.50
5218;DHT22;26539;51.064;6.346;2024-02-15T00:11:57;13.10;29.70
5218;DHT22;26539;51.064;6.346;2024-02-15T00:14:25;13.10;26.80
5218;DHT22;26539;51.064;6.346;2024-02-15T00:16:51;13.10;24.00
5218;DHT22;26539;51.064;6.346;2024-02-15T00:19:16;13.10;21.80
5218;DHT22;26539;51.064;6.346;2024-02-15T00:21:45;13.10;19.50
5218;DHT22;26539;51.064;6.346;2024-02-15T00:24:11;13.20;17.80
5218;DHT22;26539;51.064;6.346;2024-02-15T00:26:37;13.20;15.60
5218;DHT22;26539;51.064;6.346;2024-02-15T00:29:03;13.20;15.20
5218;DHT22;26539;51.064;6.346;2024-02-15T00:31:28;13.20;14.10
5218;DHT22;26539;51.064;6.346;2024-02-15T00:33:54;13.20;14.40
5218;DHT22;26539;51.064;6.346;2024-02-15T00:36:20;13.20;14.70
5218;DHT22;26539;51.064;6.346;2024-02-15T00:38:46;13.20;14.10
5218;DHT22;26539;51.064;6.346;2024-02-15T00:41:11;13.20;14.20
5218;DHT22;26539;51.064;6.346;2024-02-15T00:43:37;13.20;13.30
5218;DHT22;26539;51.064;6.346;2024-02-15T00:46:03;13.20;15.20
5218;DHT22;26539;51.064;6.346;2024-02-15T00:48:29;13.10;15.30
5218;DHT22;26539;51.064;6.346;2024-02-15T00:50:55;13.20;16.00
5218;DHT22;26539;51.064;6.346;2024-02-15T00:53:21;13.20;14.80
5218;DHT22;26539;51.064;6.346;2024-02-15T00:55:47;13.20;13.80
5218;DHT22;26539;51.064;6.346;2024-02-15T00:58:12;13.20;13.00
5218;DHT22;26539;51.064;6.346;2024-02-15T01:00:38;13.20;12.20
5218;DHT22;26539;51.064;6.346;2024-02-15T01:03:04;13.20;11.20
5218;DHT22;26539;51.064;6.346;2024-02-15T01:05:29;13.20;9.70
5218;DHT22;26539;51.064;6.346;2024-02-15T01:07:56;13.20;9.00
5218;DHT22;26539;51.064;6.346;2024-02-15T01:10:21;13.20;7.90
5218;DHT22;26539;51.064;6.346;2024-02-15T01:12:49;13.20;6.80
5218;DHT22;26539;51.064;6.346;2024-02-15T01:15:15;13.30;4.30
5218;DHT22;26539;51.064;6.346;2024-02-15T01:17:44;13.20;2.00
5218;DHT22;26539;51.064;6.346;2024-02-15T01:20:10;13.20;1.00
5218;DHT22;26539;51.064;6.346;2024-02-15T01:22:36;13.20;1.00
5218;DHT22;26539;51.064;6.346;2024-02-15T01:25:01;13.30;1.00
5218;DHT22;26539;51.064;6.346;2024-02-15T01:27:27;13.30;1.00
5218;DHT22;26539;51.064;6.346;2024-02-15T01:29:56;13.30;1.00
5218;DHT22;26539;51.064;6.346;2024-02-15T01:32:22;13.30;1.00
5218;DHT22;26539;51.064;6.346;2024-02-15T01:34:47;13.30;1.00
5218;DHT22;26539;51.064;6.346;2024-02-15T01:37:13;13.30;1.00
5218;DHT22;26539;51.064;6.346;2024-02-15T01:39:39;13.30;1.00
5218;DHT22;26539;51.064;6.346;2024-02-15T01:42:05;13.30;1.00
5218;DHT22;26539;51.064;6.346;2024-02-15T01:44:31;13.30;1.00
5218;DHT22;26539;51.064;6.346;2024-02-15T01:46:57;13.30;1.00
5218;DHT22;26539;51.064;6.346;2024-02-15T01:49:25;13.30;1.00
5218;DHT22;26539;51.064;6.346;2024-02-15T01:51:53;13.30;1.00
5218;DHT22;26539;51.064;6.346;2024-02-15T01:54:22;13.40;1.00
5218;DHT22;26539;51.064;6.346;2024-02-15T01:56:48;13.40;1.00
5218;DHT22;26539;51.064;6.346;2024-02-15T01:59:18;13.40;1.00
5218;DHT22;26539;51.064;6.346;2024-02-15T02:01:44;13.40;1.00
5218;DHT22;26539;51.064;6.346;2024-02-15T02:04:10;13.40;1.00
5218;DHT22;26539;51.064;6.346;2024-02-15T02:06:37;13.40;1.00
5218;DHT22;26539;51.064;6.346;2024-02-15T02:09:03;13.40;1.00
5218;DHT22;26539;51.064;6.346;2024-02-15T02:11:28;13.40;1.00
5218;DHT22;26539;51.064;6.346;2024-02-15T02:13:55;13.40;1.00
5218;DHT22;26539;51.064;6.346;2024-02-15T02:16:31;13.40;1.00
5218;DHT22;26539;51.064;6.346;2024-02-15T02:19:01;13.40;1.00
5218;DHT22;26539;51.064;6.346;2024-02-15T02:21:28;13.30;1.00
5218;DHT22;26539;51.064;6.346;2024-02-15T02:23:56;13.30;1.00
5218;DHT22;26539;51.064;6.346;2024-02-15T02:26:24;13.30;1.00
5218;DHT22;26539;51.064;6.346;2024-02-15T02:28:50;13.20;1.00
5218;DHT22;26539;51.064;6.346;2024-02-15T02:31:18;13.20;1.00
5218;DHT22;26539;51.064;6.346;2024-02-15T02:33:49;13.10;1.00
5218;DHT22;26539;51.064;6.346;2024-02-15T02:36:17;13.10;1.00
5218;DHT22;26539;51.064;6.346;2024-02-15T02:38:43;13.10;1.00
5218;DHT22;26539;51.064;6.346;2024-02-15T02:41:11;13.00;1.00
5218;DHT22;26539;51.064;6.346;2024-02-15T02:43:36;13.00;1.00
5218;DHT22;26539;51.064;6.346;2024-02-15T02:46:03;13.00;1.00
5218;DHT22;26539;51.064;6.346;2024-02-15T02:48:31;13.00;1.00
5218;DHT22;26539;51.064;6.346;2024-02-15T02:50:57;13.00;1.00
5218;DHT22;26539;51.064;6.346;2024-02-15T02:53:23;13.00;1.00
5218;DHT22;26539;51.064;6.346;2024-02-15T02:55:49;13.00;1.00
5218;DHT22;26539;51.064;6.346;2024-02-15T02:58:15;13.00;1.00
5218;DHT22;26539;51.064;6.346;2024-02-15T03:00:40;13.00;1.00
5218;DHT22;26539;51.064;6.346;2024-02-15T03:03:06;13.00;1.00
5218;DHT22;26539;51.064;6.346;2024-02-15T03:05:32;13.10;1.00
5218;DHT22;26539;51.064;6.346;2024-02-15T03:07:57;13.10;1.00
5218;DHT22;26539;51.064;6.346;2024-02-15T03:10:23;13.20;1.00
5218;DHT22;26539;51.064;6.346;2024-02-15T03:12:49;13.20;1.00
5218;DHT22;26539;51.064;6.346;2024-02-15T03:15:16;13.30;1.00
5218;DHT22;26539;51.064;6.346;2024-02-15T03:17:43;13.30;1.00
5218;DHT22;26539;51.064;6.346;2024-02-15T03:20:10;13.30;1.00
5218;DHT22;26539;51.064;6.346;2024-02-15T03:22:38;13.40;1.00
5218;DHT22;26539;51.064;6.346;2024-02-15T03:25:05;13.40;1.00
5218;DHT22;26539;51.064;6.346;2024-02-15T03:27:35;13.40;1.00
5218;DHT22;26539;51.064;6.346;2024-02-15T03:30:01;13.40;1.00
5218;DHT22;26539;51.064;6.346;2024-02-15T03:32:27;13.40;1.00
5218;DHT22;26539;51.064;6.346;2024-02-15T03:34:53;13.50;1.00
5218;DHT22;26539;51.064;6.346;2024-02-15T03:37:19;13.50;1.00
5218;DHT22;26539;51.064;6.346;2024-02-15T03:39:46;13.50;1.00
5218;DHT22;26539;51.064;6.346;2024-02-15T03:42:12;13.50;1.00
5218;DHT22;26539;51.064;6.346;2024-02-15T03:44:37;13.50;1.00
5218;DHT22;26539;51.064;6.346;2024-02-15T03:47:04;13.50;1.00
5218;DHT22;26539;51.064;6.346;2024-02-15T03:49:30;13.50;1.00
5218;DHT22;26539;51.064;6.346;2024-02-15T03:51:57;13.50;1.00
5218;DHT22;26539;51.064;6.346;2024-02-15T03:54:25;13.50;1.00
5218;DHT22;26539;51.064;6.346;2024-02-15T03:56:51;13.50;1.00
5218;DHT22;26539;51.064;6.346;2024-02-15T03:59:20;13.50;1.00
5218;DHT22;26539;51.064;6.346;2024-02-15T04:01:55;13.50;1.00
5218;DHT22;26539;51.064;6.346;2024-02-15T04:04:22;13.50;1.00
5218;DHT22;26539;51.064;6.346;2024-02-15T04:06:51;13.50;1.00
5218;DHT22;26539;51.064;6.346;2024-02-15T04:09:17;13.50;1.00
5218;DHT22;26539;51.064;6.346;2024-02-15T04:11:44;13.50;1.00
5218;DHT22;26539;51.064;6.346;2024-02-15T04:14:12;13.50;1.00
5218;DHT22;26539;51.064;6.346;2024-02-15T04:16:38;13.50;1.00
5218;DHT22;26539;51.064;6.346;2024-02-15T04:19:03;13.40;1.00
5218;DHT22;26539;51.064;6.346;2024-02-15T04:21:29;13.40;1.00
5218;DHT22;26539;51.064;6.346;2024-02-15T04:23:56;13.40;1.00
5218;DHT22;26539;51.064;6.346;2024-02-15T04:26:21;13.40;1.00
5218;DHT22;26539;51.064;6.346;2024-02-15T04:28:52;13.30;1.00
5218;DHT22;26539;51.064;6.346;2024-02-15T04:31:18;13.30;1.00
5218;DHT22;26539;51.064;6.346;2024-02-15T04:33:43;13.30;1.00
5218;DHT22;26539;51.064;6.346;2024-02-15T04:36:09;13.30;1.00
5218;DHT22;26539;51.064;6.346;2024-02-15T04:38:35;13.30;1.00
5218;DHT22;26539;51.064;6.346;2024-02-15T04:41:03;13.30;1.00
5218;DHT22;26539;51.064;6.346;2024-02-15T04:43:30;13.20;1.00
5218;DHT22;26539;51.064;6.346;2024-02-15T04:45:58;13.20;1.00
5218;DHT22;26539;51.064;6.346;2024-02-15T04:48:25;13.20;1.00
5218;DHT22;26539;51.064;6.346;2024-02-15T04:50:50;13.20;1.00
5218;DHT22;26539;51.064;6.346;2024-02-15T04:53:17;13.20;1.00
5218;DHT22;26539;51.064;6.346;2024-02-15T04:55:43;13.20;1.00
5218;DHT22;26539;51.064;6.346;2024-02-15T04:58:09;13.20;1.00
5218;DHT22;26539;51.064;6.346;2024-02-15T05:00:36;13.20;1.00
5218;DHT22;26539;51.064;6.346;2024-02-15T05:03:02;13.20;1.00
5218;DHT22;26539;51.064;6.346;2024-02-15T05:05:27;13.10;1.00
5218;DHT22;26539;51.064;6.346;2024-02-15T05:07:54;13.10;1.00
5218;DHT22;26539;51.064;6.346;2024-02-15T05:10:20;13.00;1.00
5218;DHT22;26539;51.064;6.346;2024-02-15T05:12:46;13.00;1.00
5218;DHT22;26539;51.064;6.346;2024-02-15T05:15:15;13.00;1.00
5218;DHT22;26539;51.064;6.346;2024-02-15T05:17:43;13.00;1.00
5218;DHT22;26539;51.064;6.346;2024-02-15T05:20:09;13.00;1.00
5218;DHT22;26539;51.064;6.346;2024-02-15T05:22:39;13.00;1.00
5218;DHT22;26539;51.064;6.346;2024-02-15T05:25:06;13.00;1.00
5218;DHT22;26539;51.064;6.346;2024-02-15T05:27:33;13.00;1.00
5218;DHT22;26539;51.064;6.346;2024-02-15T05:29:59;13.00;1.00
5218;DHT22;26539;51.064;6.346;2024-02-15T05:32:24;13.00;1.00
5218;DHT22;26539;51.064;6.346;2024-02-15T05:34:51;12.90;1.00
5218;DHT22;26539;51.064;6.346;2024-02-15T05:37:17;13.00;1.00
5218;DHT22;26539;51.064;6.346;2024-02-15T05:39:42;13.00;1.00
5218;DHT22;26539;51.064;6.346;2024-02-15T05:42:08;13.00;1.00
5218;DHT22;26539;51.064;6.346;2024-02-15T05:44:35;13.00;1.00
5218;DHT22;26539;51.064;6.346;2024-02-15T05:47:01;13.00;1.00
5218;DHT22;26539;51.064;6.346;2024-02-15T05:49:27;13.00;1.00
5218;DHT22;26539;51.064;6.346;2024-02-15T05:51:53;13.00;1.00
5218;DHT22;26539;51.064;6.346;2024-02-15T05:54:19;13.00;1.00
5218;DHT22;26539;51.064;6.346;2024-02-15T05:56:45;13.00;1.00
5218;DHT22;26539;51.064;6.346;2024-02-15T05:59:10;13.00;1.00
5218;DHT22;26539;51.064;6.346;2024-02-15T06:01:39;13.00;1.00
5218;DHT22;26539;51.064;6.346;2024-02-15T06:04:06;13.00;1.00
5218;DHT22;26539;51.064;6.346;2024-02-15T06:06:34;13.00;1.00
5218;DHT22;26539;51.064;6.346;2024-02-15T06:09:00;13.00;1.00
5218;DHT22;26539;51.064;6.346;2024-02-15T06:11:26;13.00;1.00
5218;DHT22;26539;51.064;6.346;2024-02-15T06:13:53;13.00;1.00
5218;DHT22;26539;51.064;6.346;2024-02-15T06:16:18;13.00;1.00
5218;DHT22;26539;51.064;6.346;2024-02-15T06:18:44;13.10;1.00
5218;DHT22;26539;51.064;6.346;2024-02-15T06:21:09;13.00;1.00
5218;DHT22;26539;51.064;6.346;2024-02-15T06:23:35;13.10;1.00
5218;DHT22;26539;51.064;6.346;2024-02-15T06:26:01;13.10;1.00
5218;DHT22;26539;51.064;6.346;2024-02-15T06:28:28;13.10;1.00
5218;DHT22;26539;51.064;6.346;2024-02-15T06:31:13;13.10;1.00
5218;DHT22;26539;51.064;6.346;2024-02-15T06:33:58;13.10;1.00
5218;DHT22;26539;51.064;6.346;2024-02-15T06:36:46;13.10;1.00
5218;DHT22;26539;51.064;6.346;2024-02-15T06:39:32;13.10;1.00
5218;DHT22;26539;51.064;6.346;2024-02-15T06:42:04;13.10;1.00
5218;DHT22;26539;51.064;6.346;2024-02-15T06:44:30;13.10;1.00
5218;DHT22;26539;51.064;6.346;2024-02-15T06:46:55;13.10;1.00
5218;DHT22;26539;51.064;6.346;2024-02-15T06:49:22;13.10;1.00
5218;DHT22;26539;51.064;6.346;2024-02-15T06:51:50;13.10;1.00
5218;DHT22;26539;51.064;6.346;2024-02-15T06:54:16;13.10;1.00
5218;DHT22;26539;51.064;6.346;2024-02-15T06:56:43;13.10;1.00
5218;DHT22;26539;51.064;6.346;2024-02-15T06:59:12;13.10;1.00
5218;DHT22;26539;51.064;6.346;2024-02-15T07:01:41;13.00;1.00
5218;DHT22;26539;51.064;6.346;2024-02-15T07:04:07;13.00;1.00
5218;DHT22;26539;51.064;6.346;2024-02-15T07:06:33;13.10;1.00
5218;DHT22;26539;51.064;6.346;2024-02-15T07:09:00;13.10;1.00
5218;DHT22;26539;51.064;6.346;2024-02-15T07:11:26;13.10;1.00
5218;DHT22;26539;51.064;6.346;2024-02-15T07:13:51;13.10;1.00
5218;DHT22;26539;51.064;6.346;2024-02-15T07:16:19;13.10;1.00
5218;DHT22;26539;51.064;6.346;2024-02-15T07:18:45;13.10;1.00
5218;DHT22;26539;51.064;6.346;2024-02-15T07:21:11;13.00;1.00
5218;DHT22;26539;51.064;6.346;2024-02-15T07:23:39;13.00;1.00
5218;DHT22;26539;51.064;6.346;2024-02-15T07:26:06;12.90;1.60
5218;DHT22;26539;51.064;6.346;2024-02-15T07:28:33;12.90;5.00
5218;DHT22;26539;51.064;6.346;2024-02-15T07:30:59;12.80;2.60
5218;DHT22;26539;51.064;6.346;2024-02-15T07:33:28;12.80;3.00
5218;DHT22;26539;51.064;6.346;2024-02-15T07:35:54;12.70;2.40
5218;DHT22;26539;51.064;6.346;2024-02-15T07:38:22;12.70;5.10
5218;DHT22;26539;51.064;6.346;2024-02-15T07:40:48;12.70;9.00
5218;DHT22;26539;51.064;6.346;2024-02-15T07:43:14;12.80;7.20
5218;DHT22;26539;51.064;6.346;2024-02-15T07:45:40;12.80;7.40
5218;DHT22;26539;51.064;6.346;2024-02-15T07:48:06;12.80;8.40
5218;DHT22;26539;51.064;6.346;2024-02-15T07:50:31;12.90;7.50
5218;DHT22;26539;51.064;6.346;2024-02-15T07:52:57;12.90;9.40
5218;DHT22;26539;51.064;6.346;2024-02-15T07:55:23;12.90;1.00
5218;DHT22;26539;51.064;6.346;2024-02-15T07:57:52;12.80;1.00
5218;DHT22;26539;51.064;6.346;2024-02-15T08:00:19;12.80;1.00
5218;DHT22;26539;51.064;6.346;2024-02-15T08:02:45;12.80;1.00
5218;DHT22;26539;51.064;6.346;2024-02-15T08:05:11;12.90;1.00
5218;DHT22;26539;51.064;6.346;2024-02-15T08:07:44;12.90;1.00
5218;DHT22;26539;51.064;6.346;2024-02-15T08:10:13;13.10;1.00
5218;DHT22;26539;51.064;6.346;2024-02-15T08:12:40;13.10;1.00
5218;DHT22;26539;51.064;6.346;2024-02-15T08:15:07;13.10;1.00
5218;DHT22;26539;51.064;6.346;2024-02-15T08:17:40;13.20;1.00
5218;DHT22;26539;51.064;6.346;2024-02-15T08:20:15;13.20;1.00
5218;DHT22;26539;51.064;6.346;2024-02-15T08:22:54;13.20;1.00
5218;DHT22;26539;51.064;6.346;2024-02-15T08:25:19;13.30;1.00
5218;DHT22;26539;51.064;6.346;2024-02-15T08:27:47;13.40;1.00
5218;DHT22;26539;51.064;6.346;2024-02-15T08:30:15;13.50;1.00
5218;DHT22;26539;51.064;6.346;2024-02-15T08:32:42;13.50;1.00
5218;DHT22;26539;51.064;6.346;2024-02-15T08:35:09;13.60;1.00
5218;DHT22;26539;51.064;6.346;2024-02-15T08:37:35;13.70;1.00
5218;DHT22;26539;51.064;6.346;2024-02-15T08:40:03;13.70;1.00
5218;DHT22;26539;51.064;6.346;2024-02-15T08:42:29;13.80;1.00
5218;DHT22;26539;51.064;6.346;2024-02-15T08:44:55;13.90;1.00
5218;DHT22;26539;51.064;6.346;2024-02-15T08:47:20;14.10;1.00
5218;DHT22;26539;51.064;6.346;2024-02-15T08:49:46;14.20;1.00
5218;DHT22;26539;51.064;6.346;2024-02-15T08:52:12;14.30;1.00
5218;DHT22;26539;51.064;6.346;2024-02-15T08:54:37;14.30;1.00
5218;DHT22;26539;51.064;6.346;2024-02-15T08:57:06;14.30;1.00
5218;DHT22;26539;51.064;6.346;2024-02-15T08:59:32;14.40;1.00
5218;DHT22;26539;51.064;6.346;2024-02-15T09:01:58;14.50;1.00
5218;DHT22;26539;51.064;6.346;2024-02-15T09:04:25;14.50;1.00
5218;DHT22;26539;51.064;6.346;2024-02-15T09:06:51;14.70;99.90
5218;DHT22;26539;51.064;6.346;2024-02-15T09:09:17;14.80;99.90
5218;DHT22;26539;51.064;6.346;2024-02-15T09:11:43;15.00;99.90
5218;DHT22;26539;51.064;6.346;2024-02-15T09:14:08;15.20;99.90
5218;DHT22;26539;51.064;6.346;2024-02-15T09:16:37;15.30;99.90
5218;DHT22;26539;51.064;6.346;2024-02-15T09:19:02;15.40;99.90
5218;DHT22;26539;51.064;6.346;2024-02-15T09:21:28;15.40;95.80
5218;DHT22;26539;51.064;6.346;2024-02-15T09:23:55;15.40;49.40
5218;DHT22;26539;51.064;6.346;2024-02-15T09:26:21;15.30;1.00
5218;DHT22;26539;51.064;6.346;2024-02-15T09:28:47;15.30;95.40
5218;DHT22;26539;51.064;6.346;2024-02-15T09:31:13;15.40;99.90
5218;DHT22;26539;51.064;6.346;2024-02-15T09:33:43;15.40;99.90
5218;DHT22;26539;51.064;6.346;2024-02-15T09:36:09;15.50;99.90
5218;DHT22;26539;51.064;6.346;2024-02-15T09:38:34;15.50;99.90
5218;DHT22;26539;51.064;6.346;2024-02-15T09:41:02;15.50;98.80
5218;DHT22;26539;51.064;6.346;2024-02-15T09:43:27;15.50;1.00
5218;DHT22;26539;51.064;6.346;2024-02-15T09:45:55;15.50;6.70
5218;DHT22;26539;51.064;6.346;2024-02-15T09:48:24;15.60;1.00
5218;DHT22;26539;51.064;6.346;2024-02-15T09:50:52;15.70;4.70
5218;DHT22;26539;51.064;6.346;2024-02-15T09:53:22;15.80;1.00
5218;DHT22;26539;51.064;6.346;2024-02-15T09:55:52;16.00;1.00
5218;DHT22;26539;51.064;6.346;2024-02-15T09:58:19;16.00;49.40
5218;DHT22;26539;51.064;6.346;2024-02-15T10:00:45;16.10;99.90
5218;DHT22;26539;51.064;6.346;2024-02-15T10:03:14;16.20;1.00
5218;DHT22;26539;51.064;6.346;2024-02-15T10:05:41;16.40;1.00
5218;DHT22;26539;51.064;6.346;2024-02-15T10:08:07;16.50;99.90
5218;DHT22;26539;51.064;6.346;2024-02-15T10:10:33;16.70;1.00
5218;DHT22;26539;51.064;6.346;2024-02-15T10:13:00;16.70;1.00
5218;DHT22;26539;51.064;6.346;2024-02-15T10:15:36;16.80;99.90
5218;DHT22;26539;51.064;6.346;2024-02-15T10:18:06;16.90;1.00
5218;DHT22;26539;51.064;6.346;2024-02-15T10:20:33;17.10;1.00
5218;DHT22;26539;51.064;6.346;2024-02-15T10:25:29;17.80;99.90
5218;DHT22;26539;51.064;6.346;2024-02-15T10:28:04;17.90;1.00
5218;DHT22;26539;51.064;6.346;2024-02-15T10:30:37;18.30;1.00
5218;DHT22;26539;51.064;6.346;2024-02-15T10:33:04;18.50;99.90
5218;DHT22;26539;51.064;6.346;2024-02-15T10:35:30;18.80;99.90
5218;DHT22;26539;51.064;6.346;2024-02-15T10:38:09;19.10;59.30
5218;DHT22;26539;51.064;6.346;2024-02-15T10:40:36;19.40;1.00
5218;DHT22;26539;51.064;6.346;2024-02-15T10:43:05;19.60;1.00
5218;DHT22;26539;51.064;6.346;2024-02-15T10:45:32;19.80;1.00
5218;DHT22;26539;51.064;6.346;2024-02-15T10:47:58;20.00;1.00
5218;DHT22;26539;51.064;6.346;2024-02-15T10:50:24;20.20;1.00
5218;DHT22;26539;51.064;6.346;2024-02-15T10:52:57;20.40;1.00
5218;DHT22;26539;51.064;6.346;2024-02-15T10:55:46;20.40;1.00
5218;DHT22;26539;51.064;6.346;2024-02-15T10:58:18;20.50;1.00
5218;DHT22;26539;51.064;6.346;2024-02-15T11:00:46;20.70;1.00
5218;DHT22;26539;51.064;6.346;2024-02-15T11:03:21;20.80;1.00
5218;DHT22;26539;51.064;6.346;2024-02-15T11:05:51;21.00;1.00
5218;DHT22;26539;51.064;6.346;2024-02-15T11:08:18;21.10;1.00
5218;DHT22;26539;51.064;6.346;2024-02-15T11:10:44;21.20;1.00
5218;DHT22;26539;51.064;6.346;2024-02-15T11:13:10;21.60;1.00
5218;DHT22;26539;51.064;6.346;2024-02-15T11:15:40;21.90;1.00
5218;DHT22;26539;51.064;6.346;2024-02-15T11:18:07;22.00;1.00
5218;DHT22;26539;51.064;6.346;2024-02-15T11:23:00;22.00;99.90
5218;DHT22;26539;51.064;6.346;2024-02-15T11:25:33;22.20;99.90
5218;DHT22;26539;51.064;6.346;2024-02-15T11:30:50;22.50;99.90
5218;DHT22;26539;51.064;6.346;2024-02-15T11:33:32;22.50;99.90
5218;DHT22;26539;51.064;6.346;2024-02-15T11:36:10;22.50;99.90
5218;DHT22;26539;51.064;6.346;2024-02-15T11:38:37;22.40;99.90
5218;DHT22;26539;51.064;6.346;2024-02-15T11:41:07;22.30;99.90
5218;DHT22;26539;51.064;6.346;2024-02-15T11:46:14;22.30;99.90
5218;DHT22;26539;51.064;6.346;2024-02-15T11:48:40;22.40;99.90
5218;DHT22;26539;51.064;6.346;2024-02-15T11:51:09;22.40;99.90
5218;DHT22;26539;51.064;6.346;2024-02-15T11:53:37;22.50;99.90
5218;DHT22;26539;51.064;6.346;2024-02-15T11:56:03;22.70;99.90
5218;DHT22;26539;51.064;6.346;2024-02-15T11:58:35;22.90;99.90
5218;DHT22;26539;51.064;6.346;2024-02-15T12:01:17;23.10;99.90
5218;DHT22;26539;51.064;6.346;2024-02-15T12:04:02;23.00;99.90
5218;DHT22;26539;51.064;6.346;2024-02-15T12:06:46;23.10;99.90
5218;DHT22;26539;51.064;6.346;2024-02-15T12:09:30;23.00;99.90
5218;DHT22;26539;51.064;6.346;2024-02-15T12:12:14;23.00;99.90
5218;DHT22;26539;51.064;6.346;2024-02-15T12:14:59;23.20;99.90
5218;DHT22;26539;51.064;6.346;2024-02-15T12:17:44;23.40;99.90
5218;DHT22;26539;51.064;6.346;2024-02-15T12:20:28;23.60;99.90
5218;DHT22;26539;51.064;6.346;2024-02-15T12:22:57;23.50;99.90
5218;DHT22;26539;51.064;6.346;2024-02-15T12:25:25;23.20;99.90
5218;DHT22;26539;51.064;6.346;2024-02-15T12:27:54;23.10;99.90
5218;DHT22;26539;51.064;6.346;2024-02-15T12:30:20;23.00;99.90
5218;DHT22;26539;51.064;6.346;2024-02-15T12:32:47;22.70;99.90
5218;DHT22;26539;51.064;6.346;2024-02-15T12:35:19;22.50;99.90
5218;DHT22;26539;51.064;6.346;2024-02-15T12:40:18;22.10;99.90
5218;DHT22;26539;51.064;6.346;2024-02-15T12:42:44;22.00;99.90
5218;DHT22;26539;51.064;6.346;2024-02-15T12:45:25;21.80;99.90
5218;DHT22;26539;51.064;6.346;2024-02-15T12:47:56;21.70;99.90
5218;DHT22;26539;51.064;6.346;2024-02-15T12:50:31;21.50;99.90
5218;DHT22;26539;51.064;6.346;2024-02-15T12:52:57;21.30;99.90
5218;DHT22;26539;51.064;6.346;2024-02-15T12:55:29;21.20;99.90
5218;DHT22;26539;51.064;6.346;2024-02-15T12:57:59;21.10;99.90
5218;DHT22;26539;51.064;6.346;2024-02-15T13:00:29;21.00;99.90
5218;DHT22;26539;51.064;6.346;2024-02-15T13:02:57;21.10;99.90
5218;DHT22;26539;51.064;6.346;2024-02-15T13:05:25;21.10;99.90
5218;DHT22;26539;51.064;6.346;2024-02-15T13:07:53;21.00;99.90
5218;DHT22;26539;51.064;6.346;2024-02-15T13:10:30;21.00;99.90
5218;DHT22;26539;51.064;6.346;2024-02-15T13:12:57;21.10;99.90
5218;DHT22;26539;51.064;6.346;2024-02-15T13:15:24;21.10;99.90
5218;DHT22;26539;51.064;6.346;2024-02-15T13:17:53;21.10;99.90
5218;DHT22;26539;51.064;6.346;2024-02-15T13:20:21;21.10;99.90
5218;DHT22;26539;51.064;6.346;2024-02-15T13:22:57;21.20;99.90
5218;DHT22;26539;51.064;6.346;2024-02-15T13:25:25;21.30;99.90
5218;DHT22;26539;51.064;6.346;2024-02-15T13:27:51;21.30;99.90
5218;DHT22;26539;51.064;6.346;2024-02-15T13:30:19;21.30;99.90
5218;DHT22;26539;51.064;6.346;2024-02-15T13:32:49;21.10;99.90
5218;DHT22;26539;51.064;6.346;2024-02-15T13:35:18;21.10;99.90
5218;DHT22;26539;51.064;6.346;2024-02-15T13:37:49;21.30;99.90
5218;DHT22;26539;51.064;6.346;2024-02-15T13:40:15;21.40;99.90
5218;DHT22;26539;51.064;6.346;2024-02-15T13:42:45;21.50;99.90
5218;DHT22;26539;51.064;6.346;2024-02-15T13:45:16;21.50;99.90
5218;DHT22;26539;51.064;6.346;2024-02-15T13:47:44;21.20;99.90
5218;DHT22;26539;51.064;6.346;2024-02-15T13:50:11;21.20;99.90
5218;DHT22;26539;51.064;6.346;2024-02-15T13:52:45;21.50;99.90
5218;DHT22;26539;51.064;6.346;2024-02-15T13:55:12;21.40;99.90
5218;DHT22;26539;51.064;6.346;2024-02-15T13:57:48;21.30;99.90
5218;DHT22;26539;51.064;6.346;2024-02-15T14:00:18;21.10;99.90
5218;DHT22;26539;51.064;6.346;2024-02-15T14:02:50;21.10;99.90
5218;DHT22;26539;51.064;6.346;2024-02-15T14:05:17;21.00;99.90
5218;DHT22;26539;51.064;6.346;2024-02-15T14:07:50;20.90;99.90
5218;DHT22;26539;51.064;6.346;2024-02-15T14:10:17;20.70;99.90
5218;DHT22;26539;51.064;6.346;2024-02-15T14:12:50;20.70;99.90
5218;DHT22;26539;51.064;6.346;2024-02-15T14:15:18;20.70;99.90
5218;DHT22;26539;51.064;6.346;2024-02-15T14:17:45;20.30;99.90
5218;DHT22;26539;51.064;6.346;2024-02-15T14:20:11;20.50;99.90
5218;DHT22;26539;51.064;6.346;2024-02-15T14:22:44;20.40;99.90
5218;DHT22;26539;51.064;6.346;2024-02-15T14:25:10;20.10;99.90
5218;DHT22;26539;51.064;6.346;2024-02-15T14:27:38;19.90;99.90
5218;DHT22;26539;51.064;6.346;2024-02-15T14:30:05;19.90;99.90
5218;DHT22;26539;51.064;6.346;2024-02-15T14:32:49;19.70;99.90
5218;DHT22;26539;51.064;6.346;2024-02-15T14:35:34;19.50;99.90
5218;DHT22;26539;51.064;6.346;2024-02-15T14:38:07;19.20;1.00
5218;DHT22;26539;51.064;6.346;2024-02-15T14:40:37;19.00;1.00
5218;DHT22;26539;51.064;6.346;2024-02-15T14:43:04;18.90;1.00
5218;DHT22;26539;51.064;6.346;2024-02-15T14:45:33;18.70;1.00
5218;DHT22;26539;51.064;6.346;2024-02-15T14:48:00;18.60;1.00
5218;DHT22;26539;51.064;6.346;2024-02-15T14:50:26;18.60;1.00
5218;DHT22;26539;51.064;6.346;2024-02-15T14:52:52;18.40;1.00
5218;DHT22;26539;51.064;6.346;2024-02-15T14:55:19;18.30;1.00
5218;DHT22;26539;51.064;6.346;2024-02-15T14:57:45;18.00;1.00
5218;DHT22;26539;51.064;6.346;2024-02-15T15:00:11;17.90;1.00
5218;DHT22;26539;51.064;6.346;2024-02-15T15:02:47;17.90;1.00
5218;DHT22;26539;51.064;6.346;2024-02-15T15:05:15;17.90;1.00
5218;DHT22;26539;51.064;6.346;2024-02-15T15:08:00;17.90;1.00
5218;DHT22;26539;51.064;6.346;2024-02-15T15:10:46;17.90;1.00
5218;DHT22;26539;51.064;6.346;2024-02-15T15:13:31;17.90;1.00
5218;DHT22;26539;51.064;6.346;2024-02-15T15:15:57;17.80;1.00
5218;DHT22;26539;51.064;6.346;2024-02-15T15:18:22;17.80;1.00
5218;DHT22;26539;51.064;6.346;2024-02-15T15:20:48;17.70;1.00
5218;DHT22;26539;51.064;6.346;2024-02-15T15:23:14;17.70;1.00
5218;DHT22;26539;51.064;6.346;2024-02-15T15:25:41;17.50;1.00
5218;DHT22;26539;51.064;6.346;2024-02-15T15:28:07;17.60;1.00
5218;DHT22;26539;51.064;6.346;2024-02-15T15:30:32;17.70;1.00
5218;DHT22;26539;51.064;6.346;2024-02-15T15:32:58;17.70;1.00
5218;DHT22;26539;51.064;6.346;2024-02-15T15:35:26;17.90;1.00
5218;DHT22;26539;51.064;6.346;2024-02-15T15:37:52;17.90;1.00
5218;DHT22;26539;51.064;6.346;2024-02-15T15:40:19;18.10;1.00
5218;DHT22;26539;51.064;6.346;2024-02-15T15:42:45;18.30;1.00
5218;DHT22;26539;51.064;6.346;2024-02-15T15:45:10;18.50;1.00
5218;DHT22;26539;51.064;6.346;2024-02-15T15:47:36;18.40;1.00
5218;DHT22;26539;51.064;6.346;2024-02-15T15:50:02;18.50;1.00
5218;DHT22;26539;51.064;6.346;2024-02-15T15:52:34;18.50;1.00
5218;DHT22;26539;51.064;6.346;2024-02-15T15:55:00;18.50;1.00
5218;DHT22;26539;51.064;6.346;2024-02-15T15:57:26;18.60;1.00
5218;DHT22;26539;51.064;6.346;2024-02-15T15:59:52;18.30;1.00
5218;DHT22;26539;51.064;6.346;2024-02-15T16:02:17;18.30;1.00
5218;DHT22;26539;51.064;6.346;2024-02-15T16:04:44;18.20;1.00
5218;DHT22;26539;51.064;6.346;2024-02-15T16:07:11;18.20;1.00
5218;DHT22;26539;51.064;6.346;2024-02-15T16:09:37;17.90;1.00
5218;DHT22;26539;51.064;6.346;2024-02-15T16:12:10;17.90;1.00
5218;DHT22;26539;51.064;6.346;2024-02-15T16:14:35;17.50;1.00
5218;DHT22;26539;51.064;6.346;2024-02-15T16:17:05;17.30;1.00